sensor_id;sensor_type;location;lat;lon;timestamp;P1;durP1;ratioP1;P2;durP2;ratioP2
41799;SDS011;27468;47.460;19.034;2023-08-01T00:02:09;4.28;;;2.83;;
41799;SDS011;27468;47.460;19.034;2023-08-01T00:04:35;4.25;;;1.60;;
41799;SDS011;27468;47.460;19.034;2023-08-01T00:07:00;3.60;;;2.03;;
41799;SDS011;27468;47.460;19.034;2023-08-01T00:09:26;3.53;;;1.98;;
41799;SDS011;27468;47.460;19.034;2023-08-01T00:11:51;4.70;;;2.00;;
41799;SDS011;27468;47.460;19.034;2023-08-01T00:14:17;3.08;;;1.85;;
41799;SDS011;27468;47.460;19.034;2023-08-01T00:16:42;3.10;;;1.80;;
41799;SDS011;27468;47.460;19.034;2023-08-01T00:19:07;3.20;;;1.77;;
41799;SDS011;27468;47.460;19.034;2023-08-01T00:21:33;4.32;;;1.80;;
41799;SDS011;27468;47.460;19.034;2023-08-01T00:23:58;4.25;;;1.80;;
41799;SDS011;27468;47.460;19.034;2023-08-01T00:26:24;4.10;;;1.90;;
41799;SDS011;27468;47.460;19.034;2023-08-01T00:28:49;4.45;;;1.90;;
41799;SDS011;27468;47.460;19.034;2023-08-01T00:31:14;3.60;;;1.70;;
41799;SDS011;27468;47.460;19.034;2023-08-01T00:33:40;5.22;;;1.98;;
41799;SDS011;27468;47.460;19.034;2023-08-01T00:36:05;4.28;;;2.08;;
41799;SDS011;27468;47.460;19.034;2023-08-01T00:38:36;4.93;;;2.45;;
41799;SDS011;27468;47.460;19.034;2023-08-01T00:41:02;2.55;;;1.65;;
41799;SDS011;27468;47.460;19.034;2023-08-01T00:43:27;4.13;;;2.25;;
41799;SDS011;27468;47.460;19.034;2023-08-01T00:45:53;2.28;;;1.70;;
41799;SDS011;27468;47.460;19.034;2023-08-01T00:48:23;2.38;;;1.60;;
41799;SDS011;27468;47.460;19.034;2023-08-01T00:50:49;2.90;;;1.77;;
41799;SDS011;27468;47.460;19.034;2023-08-01T00:53:15;3.90;;;1.73;;
41799;SDS011;27468;47.460;19.034;2023-08-01T00:55:42;3.00;;;1.75;;
41799;SDS011;27468;47.460;19.034;2023-08-01T00:58:08;4.40;;;1.80;;
41799;SDS011;27468;47.460;19.034;2023-08-01T01:00:34;3.92;;;2.33;;
41799;SDS011;27468;47.460;19.034;2023-08-01T01:02:59;3.72;;;1.75;;
41799;SDS011;27468;47.460;19.034;2023-08-01T01:05:25;3.95;;;2.40;;
41799;SDS011;27468;47.460;19.034;2023-08-01T01:07:56;5.78;;;2.00;;
41799;SDS011;27468;47.460;19.034;2023-08-01T01:10:22;3.97;;;2.08;;
41799;SDS011;27468;47.460;19.034;2023-08-01T01:12:48;3.08;;;1.75;;
41799;SDS011;27468;47.460;19.034;2023-08-01T01:15:15;4.13;;;1.90;;
41799;SDS011;27468;47.460;19.034;2023-08-01T01:17:40;3.58;;;2.20;;
41799;SDS011;27468;47.460;19.034;2023-08-01T01:20:06;2.78;;;1.77;;
41799;SDS011;27468;47.460;19.034;2023-08-01T01:22:31;3.60;;;2.15;;
41799;SDS011;27468;47.460;19.034;2023-08-01T01:24:59;3.33;;;2.03;;
41799;SDS011;27468;47.460;19.034;2023-08-01T01:27:26;2.63;;;1.70;;
41799;SDS011;27468;47.460;19.034;2023-08-01T01:29:53;4.03;;;2.08;;
41799;SDS011;27468;47.460;19.034;2023-08-01T01:32:20;3.50;;;2.05;;
41799;SDS011;27468;47.460;19.034;2023-08-01T01:34:46;3.67;;;2.08;;
41799;SDS011;27468;47.460;19.034;2023-08-01T01:37:12;5.57;;;2.40;;
41799;SDS011;27468;47.460;19.034;2023-08-01T01:39:37;3.58;;;2.30;;
41799;SDS011;27468;47.460;19.034;2023-08-01T01:42:03;3.30;;;1.98;;
41799;SDS011;27468;47.460;19.034;2023-08-01T01:44:28;3.10;;;1.90;;
41799;SDS011;27468;47.460;19.034;2023-08-01T01:46:54;3.83;;;2.03;;
41799;SDS011;27468;47.460;19.034;2023-08-01T01:49:19;3.58;;;2.05;;
41799;SDS011;27468;47.460;19.034;2023-08-01T01:51:44;3.28;;;2.10;;
41799;SDS011;27468;47.460;19.034;2023-08-01T01:54:10;3.25;;;2.25;;
41799;SDS011;27468;47.460;19.034;2023-08-01T01:56:35;3.78;;;1.95;;
41799;SDS011;27468;47.460;19.034;2023-08-01T01:59:01;2.80;;;2.30;;
41799;SDS011;27468;47.460;19.034;2023-08-01T02:01:27;3.88;;;2.40;;
41799;SDS011;27468;47.460;19.034;2023-08-01T02:03:52;2.85;;;1.77;;
41799;SDS011;27468;47.460;19.034;2023-08-01T02:06:17;2.63;;;2.25;;
41799;SDS011;27468;47.460;19.034;2023-08-01T02:08:43;3.38;;;2.08;;
41799;SDS011;27468;47.460;19.034;2023-08-01T02:11:08;4.47;;;2.13;;
41799;SDS011;27468;47.460;19.034;2023-08-01T02:13:34;6.18;;;2.30;;
41799;SDS011;27468;47.460;19.034;2023-08-01T02:15:59;4.60;;;2.33;;
41799;SDS011;27468;47.460;19.034;2023-08-01T02:18:25;3.97;;;2.22;;
41799;SDS011;27468;47.460;19.034;2023-08-01T02:20:50;3.42;;;2.15;;
41799;SDS011;27468;47.460;19.034;2023-08-01T02:23:16;4.55;;;1.92;;
41799;SDS011;27468;47.460;19.034;2023-08-01T02:25:41;4.57;;;2.10;;
41799;SDS011;27468;47.460;19.034;2023-08-01T02:28:07;4.45;;;2.10;;
41799;SDS011;27468;47.460;19.034;2023-08-01T02:30:33;4.00;;;1.92;;
41799;SDS011;27468;47.460;19.034;2023-08-01T02:32:59;3.17;;;1.83;;
41799;SDS011;27468;47.460;19.034;2023-08-01T02:35:25;2.95;;;1.88;;
41799;SDS011;27468;47.460;19.034;2023-08-01T02:37:50;3.22;;;1.70;;
41799;SDS011;27468;47.460;19.034;2023-08-01T02:40:15;5.50;;;2.42;;
41799;SDS011;27468;47.460;19.034;2023-08-01T02:42:41;3.28;;;1.88;;
41799;SDS011;27468;47.460;19.034;2023-08-01T02:45:06;3.45;;;1.75;;
41799;SDS011;27468;47.460;19.034;2023-08-01T02:47:32;3.20;;;1.80;;
41799;SDS011;27468;47.460;19.034;2023-08-01T02:49:57;3.40;;;2.20;;
41799;SDS011;27468;47.460;19.034;2023-08-01T02:52:23;4.75;;;2.40;;
41799;SDS011;27468;47.460;19.034;2023-08-01T02:54:48;2.92;;;1.85;;
41799;SDS011;27468;47.460;19.034;2023-08-01T02:57:13;3.83;;;2.20;;
41799;SDS011;27468;47.460;19.034;2023-08-01T02:59:39;3.85;;;1.90;;
41799;SDS011;27468;47.460;19.034;2023-08-01T03:02:04;5.00;;;2.10;;
41799;SDS011;27468;47.460;19.034;2023-08-01T03:04:30;3.08;;;2.00;;
41799;SDS011;27468;47.460;19.034;2023-08-01T03:06:55;3.97;;;2.08;;
41799;SDS011;27468;47.460;19.034;2023-08-01T03:09:20;3.40;;;1.80;;
41799;SDS011;27468;47.460;19.034;2023-08-01T03:11:46;4.65;;;2.22;;
41799;SDS011;27468;47.460;19.034;2023-08-01T03:14:11;4.55;;;2.20;;
41799;SDS011;27468;47.460;19.034;2023-08-01T03:16:36;3.75;;;2.00;;
41799;SDS011;27468;47.460;19.034;2023-08-01T03:19:02;3.22;;;1.95;;
41799;SDS011;27468;47.460;19.034;2023-08-01T03:21:32;3.83;;;2.08;;
41799;SDS011;27468;47.460;19.034;2023-08-01T03:23:59;3.70;;;2.17;;
41799;SDS011;27468;47.460;19.034;2023-08-01T03:26:24;3.72;;;2.50;;
41799;SDS011;27468;47.460;19.034;2023-08-01T03:28:50;3.92;;;2.20;;
41799;SDS011;27468;47.460;19.034;2023-08-01T03:31:15;3.85;;;2.17;;
41799;SDS011;27468;47.460;19.034;2023-08-01T03:33:40;3.58;;;1.92;;
41799;SDS011;27468;47.460;19.034;2023-08-01T03:36:06;5.60;;;2.20;;
41799;SDS011;27468;47.460;19.034;2023-08-01T03:38:31;3.55;;;1.98;;
41799;SDS011;27468;47.460;19.034;2023-08-01T03:40:57;4.50;;;2.25;;
41799;SDS011;27468;47.460;19.034;2023-08-01T03:43:22;3.15;;;2.00;;
41799;SDS011;27468;47.460;19.034;2023-08-01T03:45:49;5.55;;;2.20;;
41799;SDS011;27468;47.460;19.034;2023-08-01T03:48:15;3.85;;;2.13;;
41799;SDS011;27468;47.460;19.034;2023-08-01T03:50:40;3.65;;;2.10;;
41799;SDS011;27468;47.460;19.034;2023-08-01T03:53:05;4.75;;;2.42;;
41799;SDS011;27468;47.460;19.034;2023-08-01T03:55:32;4.30;;;2.03;;
41799;SDS011;27468;47.460;19.034;2023-08-01T03:57:57;4.13;;;1.98;;
41799;SDS011;27468;47.460;19.034;2023-08-01T04:00:23;5.18;;;2.22;;
41799;SDS011;27468;47.460;19.034;2023-08-01T04:02:48;3.78;;;2.05;;
41799;SDS011;27468;47.460;19.034;2023-08-01T04:05:14;5.38;;;2.40;;
41799;SDS011;27468;47.460;19.034;2023-08-01T04:07:39;3.75;;;2.00;;
41799;SDS011;27468;47.460;19.034;2023-08-01T04:10:06;3.55;;;1.67;;
41799;SDS011;27468;47.460;19.034;2023-08-01T04:12:32;3.78;;;2.30;;
41799;SDS011;27468;47.460;19.034;2023-08-01T04:14:58;6.10;;;2.22;;
41799;SDS011;27468;47.460;19.034;2023-08-01T04:17:24;2.70;;;1.98;;
41799;SDS011;27468;47.460;19.034;2023-08-01T04:19:49;4.28;;;2.33;;
41799;SDS011;27468;47.460;19.034;2023-08-01T04:22:15;4.18;;;2.15;;
41799;SDS011;27468;47.460;19.034;2023-08-01T04:24:40;3.30;;;2.13;;
41799;SDS011;27468;47.460;19.034;2023-08-01T04:27:06;3.22;;;1.95;;
41799;SDS011;27468;47.460;19.034;2023-08-01T04:29:31;5.30;;;2.40;;
41799;SDS011;27468;47.460;19.034;2023-08-01T04:31:57;3.45;;;2.30;;
41799;SDS011;27468;47.460;19.034;2023-08-01T04:34:22;4.45;;;2.33;;
41799;SDS011;27468;47.460;19.034;2023-08-01T04:36:47;3.95;;;2.30;;
41799;SDS011;27468;47.460;19.034;2023-08-01T04:39:13;3.72;;;2.05;;
41799;SDS011;27468;47.460;19.034;2023-08-01T04:41:38;4.55;;;2.28;;
41799;SDS011;27468;47.460;19.034;2023-08-01T04:44:04;3.50;;;2.15;;
41799;SDS011;27468;47.460;19.034;2023-08-01T04:46:29;5.32;;;2.08;;
41799;SDS011;27468;47.460;19.034;2023-08-01T04:48:55;4.43;;;2.40;;
41799;SDS011;27468;47.460;19.034;2023-08-01T04:51:20;5.78;;;2.53;;
41799;SDS011;27468;47.460;19.034;2023-08-01T04:53:45;4.93;;;2.25;;
41799;SDS011;27468;47.460;19.034;2023-08-01T04:56:11;4.78;;;2.30;;
41799;SDS011;27468;47.460;19.034;2023-08-01T04:58:36;4.80;;;2.45;;
41799;SDS011;27468;47.460;19.034;2023-08-01T05:01:02;3.42;;;2.50;;
41799;SDS011;27468;47.460;19.034;2023-08-01T05:03:27;5.35;;;2.90;;
41799;SDS011;27468;47.460;19.034;2023-08-01T05:05:52;3.80;;;2.53;;
41799;SDS011;27468;47.460;19.034;2023-08-01T05:08:18;5.25;;;3.38;;
41799;SDS011;27468;47.460;19.034;2023-08-01T05:10:43;6.10;;;3.15;;
41799;SDS011;27468;47.460;19.034;2023-08-01T05:13:09;4.63;;;2.72;;
41799;SDS011;27468;47.460;19.034;2023-08-01T05:15:34;4.97;;;2.78;;
41799;SDS011;27468;47.460;19.034;2023-08-01T05:17:59;6.38;;;3.20;;
41799;SDS011;27468;47.460;19.034;2023-08-01T05:20:25;4.60;;;3.22;;
41799;SDS011;27468;47.460;19.034;2023-08-01T05:22:55;7.20;;;3.67;;
41799;SDS011;27468;47.460;19.034;2023-08-01T05:25:22;5.05;;;3.30;;
41799;SDS011;27468;47.460;19.034;2023-08-01T05:27:47;6.85;;;3.90;;
41799;SDS011;27468;47.460;19.034;2023-08-01T05:30:13;6.53;;;3.33;;
41799;SDS011;27468;47.460;19.034;2023-08-01T05:32:39;6.18;;;3.65;;
41799;SDS011;27468;47.460;19.034;2023-08-01T05:35:05;6.03;;;3.60;;
41799;SDS011;27468;47.460;19.034;2023-08-01T05:37:31;7.13;;;4.25;;
41799;SDS011;27468;47.460;19.034;2023-08-01T05:39:57;5.97;;;3.75;;
41799;SDS011;27468;47.460;19.034;2023-08-01T05:42:22;7.25;;;3.72;;
41799;SDS011;27468;47.460;19.034;2023-08-01T05:44:48;7.55;;;3.75;;
41799;SDS011;27468;47.460;19.034;2023-08-01T05:47:13;7.28;;;3.95;;
41799;SDS011;27468;47.460;19.034;2023-08-01T05:49:38;7.57;;;4.43;;
41799;SDS011;27468;47.460;19.034;2023-08-01T05:52:04;6.82;;;4.20;;
41799;SDS011;27468;47.460;19.034;2023-08-01T05:54:30;7.25;;;4.18;;
41799;SDS011;27468;47.460;19.034;2023-08-01T05:56:55;7.22;;;4.18;;
41799;SDS011;27468;47.460;19.034;2023-08-01T05:59:21;10.65;;;4.68;;
41799;SDS011;27468;47.460;19.034;2023-08-01T06:01:46;7.03;;;4.38;;
41799;SDS011;27468;47.460;19.034;2023-08-01T06:04:12;6.65;;;3.88;;
41799;SDS011;27468;47.460;19.034;2023-08-01T06:06:37;8.40;;;4.00;;
41799;SDS011;27468;47.460;19.034;2023-08-01T06:09:02;11.10;;;4.20;;
41799;SDS011;27468;47.460;19.034;2023-08-01T06:11:28;8.68;;;3.95;;
41799;SDS011;27468;47.460;19.034;2023-08-01T06:13:53;11.05;;;4.47;;
41799;SDS011;27468;47.460;19.034;2023-08-01T06:16:19;8.60;;;3.90;;
41799;SDS011;27468;47.460;19.034;2023-08-01T06:18:44;8.05;;;3.67;;
41799;SDS011;27468;47.460;19.034;2023-08-01T06:21:09;7.20;;;3.75;;
41799;SDS011;27468;47.460;19.034;2023-08-01T06:23:35;7.10;;;3.20;;
41799;SDS011;27468;47.460;19.034;2023-08-01T06:26:00;6.60;;;2.70;;
41799;SDS011;27468;47.460;19.034;2023-08-01T06:28:26;5.47;;;2.83;;
41799;SDS011;27468;47.460;19.034;2023-08-01T06:30:51;4.95;;;2.47;;
41799;SDS011;27468;47.460;19.034;2023-08-01T06:33:16;5.97;;;2.85;;
41799;SDS011;27468;47.460;19.034;2023-08-01T06:35:42;5.68;;;2.35;;
41799;SDS011;27468;47.460;19.034;2023-08-01T06:38:07;5.50;;;2.45;;
41799;SDS011;27468;47.460;19.034;2023-08-01T06:40:33;5.80;;;2.42;;
41799;SDS011;27468;47.460;19.034;2023-08-01T06:42:58;5.32;;;2.20;;
41799;SDS011;27468;47.460;19.034;2023-08-01T06:45:23;4.60;;;2.78;;
41799;SDS011;27468;47.460;19.034;2023-08-01T06:47:49;4.80;;;2.30;;
41799;SDS011;27468;47.460;19.034;2023-08-01T06:50:14;5.50;;;2.88;;
41799;SDS011;27468;47.460;19.034;2023-08-01T06:52:40;7.05;;;2.95;;
41799;SDS011;27468;47.460;19.034;2023-08-01T06:55:05;5.05;;;2.92;;
41799;SDS011;27468;47.460;19.034;2023-08-01T06:57:31;6.57;;;2.60;;
41799;SDS011;27468;47.460;19.034;2023-08-01T06:59:56;5.85;;;2.38;;
41799;SDS011;27468;47.460;19.034;2023-08-01T07:02:21;5.97;;;2.50;;
41799;SDS011;27468;47.460;19.034;2023-08-01T07:04:47;3.55;;;2.20;;
41799;SDS011;27468;47.460;19.034;2023-08-01T07:07:12;3.85;;;2.70;;
41799;SDS011;27468;47.460;19.034;2023-08-01T07:09:38;3.20;;;2.30;;
41799;SDS011;27468;47.460;19.034;2023-08-01T07:12:04;5.50;;;2.40;;
41799;SDS011;27468;47.460;19.034;2023-08-01T07:14:30;4.45;;;2.35;;
41799;SDS011;27468;47.460;19.034;2023-08-01T07:16:55;4.55;;;2.38;;
41799;SDS011;27468;47.460;19.034;2023-08-01T07:19:21;2.65;;;2.17;;
41799;SDS011;27468;47.460;19.034;2023-08-01T07:21:47;2.92;;;1.98;;
41799;SDS011;27468;47.460;19.034;2023-08-01T07:24:13;4.20;;;2.00;;
41799;SDS011;27468;47.460;19.034;2023-08-01T07:26:40;3.17;;;2.42;;
41799;SDS011;27468;47.460;19.034;2023-08-01T07:29:05;3.65;;;2.00;;
41799;SDS011;27468;47.460;19.034;2023-08-01T07:31:33;5.57;;;2.60;;
41799;SDS011;27468;47.460;19.034;2023-08-01T07:33:59;2.95;;;2.22;;
41799;SDS011;27468;47.460;19.034;2023-08-01T07:36:24;3.83;;;2.25;;
41799;SDS011;27468;47.460;19.034;2023-08-01T07:38:49;3.53;;;2.22;;
41799;SDS011;27468;47.460;19.034;2023-08-01T07:41:15;3.95;;;2.28;;
41799;SDS011;27468;47.460;19.034;2023-08-01T07:43:40;2.55;;;1.92;;
41799;SDS011;27468;47.460;19.034;2023-08-01T07:46:06;5.13;;;2.10;;
41799;SDS011;27468;47.460;19.034;2023-08-01T07:48:33;2.10;;;1.90;;
41799;SDS011;27468;47.460;19.034;2023-08-01T07:50:59;4.07;;;1.98;;
41799;SDS011;27468;47.460;19.034;2023-08-01T07:53:25;3.78;;;2.40;;
41799;SDS011;27468;47.460;19.034;2023-08-01T07:55:52;4.45;;;1.98;;
41799;SDS011;27468;47.460;19.034;2023-08-01T07:58:18;4.00;;;2.10;;
41799;SDS011;27468;47.460;19.034;2023-08-01T08:00:43;3.20;;;2.25;;
41799;SDS011;27468;47.460;19.034;2023-08-01T08:03:09;3.58;;;2.17;;
41799;SDS011;27468;47.460;19.034;2023-08-01T08:05:34;3.25;;;2.28;;
41799;SDS011;27468;47.460;19.034;2023-08-01T08:08:03;3.08;;;1.67;;
41799;SDS011;27468;47.460;19.034;2023-08-01T08:10:29;2.53;;;1.92;;
41799;SDS011;27468;47.460;19.034;2023-08-01T08:12:54;4.15;;;2.05;;
41799;SDS011;27468;47.460;19.034;2023-08-01T08:15:20;3.58;;;2.38;;
41799;SDS011;27468;47.460;19.034;2023-08-01T08:17:45;3.95;;;2.17;;
41799;SDS011;27468;47.460;19.034;2023-08-01T08:20:10;3.67;;;2.00;;
41799;SDS011;27468;47.460;19.034;2023-08-01T08:22:36;3.90;;;2.03;;
41799;SDS011;27468;47.460;19.034;2023-08-01T08:25:01;4.40;;;2.03;;
41799;SDS011;27468;47.460;19.034;2023-08-01T08:27:27;3.38;;;2.10;;
41799;SDS011;27468;47.460;19.034;2023-08-01T08:29:52;3.70;;;1.70;;
41799;SDS011;27468;47.460;19.034;2023-08-01T08:32:18;2.60;;;1.75;;
41799;SDS011;27468;47.460;19.034;2023-08-01T08:34:43;2.10;;;1.67;;
41799;SDS011;27468;47.460;19.034;2023-08-01T08:37:08;3.78;;;2.05;;
41799;SDS011;27468;47.460;19.034;2023-08-01T08:39:34;4.10;;;1.83;;
41799;SDS011;27468;47.460;19.034;2023-08-01T08:41:59;2.47;;;1.58;;
41799;SDS011;27468;47.460;19.034;2023-08-01T08:44:25;2.70;;;1.70;;
41799;SDS011;27468;47.460;19.034;2023-08-01T08:46:53;2.88;;;2.15;;
41799;SDS011;27468;47.460;19.034;2023-08-01T08:49:19;3.38;;;1.77;;
41799;SDS011;27468;47.460;19.034;2023-08-01T08:51:46;3.22;;;1.88;;
41799;SDS011;27468;47.460;19.034;2023-08-01T08:54:13;3.03;;;2.40;;
41799;SDS011;27468;47.460;19.034;2023-08-01T08:56:39;2.70;;;2.00;;
41799;SDS011;27468;47.460;19.034;2023-08-01T08:59:06;3.13;;;1.83;;
41799;SDS011;27468;47.460;19.034;2023-08-01T09:01:32;3.35;;;1.90;;
41799;SDS011;27468;47.460;19.034;2023-08-01T09:03:59;3.22;;;1.65;;
41799;SDS011;27468;47.460;19.034;2023-08-01T09:06:26;2.83;;;2.28;;
41799;SDS011;27468;47.460;19.034;2023-08-01T09:08:56;3.78;;;2.10;;
41799;SDS011;27468;47.460;19.034;2023-08-01T09:11:27;3.72;;;2.15;;
41799;SDS011;27468;47.460;19.034;2023-08-01T09:13:53;3.17;;;2.05;;
41799;SDS011;27468;47.460;19.034;2023-08-01T09:16:18;2.83;;;1.80;;
41799;SDS011;27468;47.460;19.034;2023-08-01T09:18:51;2.33;;;2.00;;
41799;SDS011;27468;47.460;19.034;2023-08-01T09:21:21;2.25;;;1.60;;
41799;SDS011;27468;47.460;19.034;2023-08-01T09:23:47;3.50;;;1.73;;
41799;SDS011;27468;47.460;19.034;2023-08-01T09:26:16;2.78;;;1.80;;
41799;SDS011;27468;47.460;19.034;2023-08-01T09:28:42;3.15;;;1.95;;
41799;SDS011;27468;47.460;19.034;2023-08-01T09:31:09;3.20;;;2.00;;
41799;SDS011;27468;47.460;19.034;2023-08-01T09:33:39;3.72;;;2.17;;
41799;SDS011;27468;47.460;19.034;2023-08-01T09:36:06;3.22;;;2.28;;
41799;SDS011;27468;47.460;19.034;2023-08-01T09:38:36;2.47;;;1.83;;
41799;SDS011;27468;47.460;19.034;2023-08-01T09:41:03;2.92;;;1.75;;
41799;SDS011;27468;47.460;19.034;2023-08-01T09:43:36;2.67;;;2.00;;
41799;SDS011;27468;47.460;19.034;2023-08-01T09:46:02;2.10;;;1.65;;
41799;SDS011;27468;47.460;19.034;2023-08-01T09:48:31;2.70;;;1.65;;
41799;SDS011;27468;47.460;19.034;2023-08-01T09:53:49;3.45;;;2.00;;
41799;SDS011;27468;47.460;19.034;2023-08-01T09:56:18;2.63;;;1.80;;
41799;SDS011;27468;47.460;19.034;2023-08-01T09:58:45;2.60;;;1.90;;
41799;SDS011;27468;47.460;19.034;2023-08-01T10:01:12;2.67;;;2.05;;
41799;SDS011;27468;47.460;19.034;2023-08-01T10:03:40;2.72;;;1.90;;
41799;SDS011;27468;47.460;19.034;2023-08-01T10:06:10;3.10;;;2.05;;
41799;SDS011;27468;47.460;19.034;2023-08-01T10:08:39;2.95;;;1.83;;
41799;SDS011;27468;47.460;19.034;2023-08-01T10:11:05;2.78;;;1.60;;
41799;SDS011;27468;47.460;19.034;2023-08-01T10:13:31;2.00;;;1.70;;
41799;SDS011;27468;47.460;19.034;2023-08-01T10:15:57;2.60;;;1.75;;
41799;SDS011;27468;47.460;19.034;2023-08-01T10:18:24;3.38;;;1.85;;
41799;SDS011;27468;47.460;19.034;2023-08-01T10:20:50;4.20;;;1.70;;
41799;SDS011;27468;47.460;19.034;2023-08-01T10:23:17;3.85;;;1.88;;
41799;SDS011;27468;47.460;19.034;2023-08-01T10:25:43;3.17;;;1.80;;
41799;SDS011;27468;47.460;19.034;2023-08-01T10:28:10;2.58;;;1.63;;
41799;SDS011;27468;47.460;19.034;2023-08-01T10:30:35;2.75;;;1.90;;
41799;SDS011;27468;47.460;19.034;2023-08-01T10:33:01;2.35;;;1.73;;
41799;SDS011;27468;47.460;19.034;2023-08-01T10:35:33;3.50;;;1.67;;
41799;SDS011;27468;47.460;19.034;2023-08-01T10:38:09;2.90;;;1.70;;
41799;SDS011;27468;47.460;19.034;2023-08-01T10:40:36;3.50;;;1.70;;
41799;SDS011;27468;47.460;19.034;2023-08-01T10:43:04;2.97;;;1.73;;
41799;SDS011;27468;47.460;19.034;2023-08-01T10:45:30;3.67;;;1.45;;
41799;SDS011;27468;47.460;19.034;2023-08-01T10:48:08;3.72;;;2.05;;
41799;SDS011;27468;47.460;19.034;2023-08-01T10:50:35;3.53;;;1.98;;
41799;SDS011;27468;47.460;19.034;2023-08-01T10:53:07;3.33;;;1.60;;
41799;SDS011;27468;47.460;19.034;2023-08-01T10:55:44;2.65;;;1.60;;
41799;SDS011;27468;47.460;19.034;2023-08-01T10:58:11;2.40;;;1.90;;
41799;SDS011;27468;47.460;19.034;2023-08-01T11:00:37;3.47;;;1.83;;
41799;SDS011;27468;47.460;19.034;2023-08-01T11:03:03;2.65;;;1.67;;
41799;SDS011;27468;47.460;19.034;2023-08-01T11:05:28;1.85;;;1.40;;
41799;SDS011;27468;47.460;19.034;2023-08-01T11:07:58;2.25;;;1.63;;
41799;SDS011;27468;47.460;19.034;2023-08-01T11:10:34;2.90;;;1.80;;
41799;SDS011;27468;47.460;19.034;2023-08-01T11:12:59;2.85;;;1.70;;
41799;SDS011;27468;47.460;19.034;2023-08-01T11:15:25;3.15;;;2.10;;
41799;SDS011;27468;47.460;19.034;2023-08-01T11:17:52;3.60;;;1.67;;
41799;SDS011;27468;47.460;19.034;2023-08-01T11:20:19;3.70;;;1.73;;
41799;SDS011;27468;47.460;19.034;2023-08-01T11:25:20;2.90;;;1.70;;
41799;SDS011;27468;47.460;19.034;2023-08-01T11:27:57;3.63;;;1.75;;
41799;SDS011;27468;47.460;19.034;2023-08-01T11:30:30;1.98;;;1.70;;
41799;SDS011;27468;47.460;19.034;2023-08-01T11:32:57;3.22;;;1.50;;
41799;SDS011;27468;47.460;19.034;2023-08-01T11:35:23;2.40;;;1.63;;
41799;SDS011;27468;47.460;19.034;2023-08-01T11:37:49;2.95;;;2.15;;
41799;SDS011;27468;47.460;19.034;2023-08-01T11:40:15;3.78;;;1.95;;
41799;SDS011;27468;47.460;19.034;2023-08-01T11:42:41;2.58;;;1.70;;
41799;SDS011;27468;47.460;19.034;2023-08-01T11:45:10;2.53;;;1.63;;
41799;SDS011;27468;47.460;19.034;2023-08-01T11:47:36;2.90;;;2.15;;
41799;SDS011;27468;47.460;19.034;2023-08-01T11:50:02;3.25;;;1.75;;
41799;SDS011;27468;47.460;19.034;2023-08-01T11:52:28;3.30;;;1.80;;
41799;SDS011;27468;47.460;19.034;2023-08-01T11:54:54;2.97;;;1.55;;
41799;SDS011;27468;47.460;19.034;2023-08-01T11:57:23;2.95;;;1.55;;
41799;SDS011;27468;47.460;19.034;2023-08-01T11:59:54;1.52;;;1.42;;
41799;SDS011;27468;47.460;19.034;2023-08-01T12:02:29;2.13;;;1.50;;
41799;SDS011;27468;47.460;19.034;2023-08-01T12:04:55;2.05;;;1.50;;
41799;SDS011;27468;47.460;19.034;2023-08-01T12:07:20;2.03;;;1.45;;
41799;SDS011;27468;47.460;19.034;2023-08-01T12:12:22;1.95;;;1.52;;
41799;SDS011;27468;47.460;19.034;2023-08-01T12:14:47;2.35;;;1.42;;
41799;SDS011;27468;47.460;19.034;2023-08-01T12:17:13;2.25;;;1.33;;
41799;SDS011;27468;47.460;19.034;2023-08-01T12:19:38;2.58;;;1.60;;
41799;SDS011;27468;47.460;19.034;2023-08-01T12:22:04;3.17;;;1.80;;
41799;SDS011;27468;47.460;19.034;2023-08-01T12:24:29;2.15;;;1.50;;
41799;SDS011;27468;47.460;19.034;2023-08-01T12:26:55;2.53;;;1.88;;
41799;SDS011;27468;47.460;19.034;2023-08-01T12:29:20;3.38;;;1.63;;
41799;SDS011;27468;47.460;19.034;2023-08-01T12:31:46;2.10;;;1.63;;
41799;SDS011;27468;47.460;19.034;2023-08-01T12:34:11;2.95;;;1.70;;
41799;SDS011;27468;47.460;19.034;2023-08-01T12:36:36;1.80;;;1.40;;
41799;SDS011;27468;47.460;19.034;2023-08-01T12:39:02;2.42;;;1.60;;
41799;SDS011;27468;47.460;19.034;2023-08-01T12:41:28;2.08;;;1.40;;
41799;SDS011;27468;47.460;19.034;2023-08-01T12:43:53;1.65;;;1.38;;
41799;SDS011;27468;47.460;19.034;2023-08-01T12:46:19;1.95;;;1.52;;
41799;SDS011;27468;47.460;19.034;2023-08-01T12:48:44;1.50;;;1.38;;
41799;SDS011;27468;47.460;19.034;2023-08-01T12:51:11;2.00;;;1.50;;
41799;SDS011;27468;47.460;19.034;2023-08-01T12:53:36;2.65;;;1.38;;
41799;SDS011;27468;47.460;19.034;2023-08-01T12:56:04;2.25;;;1.50;;
41799;SDS011;27468;47.460;19.034;2023-08-01T12:58:29;2.55;;;1.70;;
41799;SDS011;27468;47.460;19.034;2023-08-01T13:00:55;2.58;;;1.63;;
41799;SDS011;27468;47.460;19.034;2023-08-01T13:03:21;1.90;;;1.40;;
41799;SDS011;27468;47.460;19.034;2023-08-01T13:05:46;2.45;;;1.73;;
41799;SDS011;27468;47.460;19.034;2023-08-01T13:08:11;2.88;;;1.60;;
41799;SDS011;27468;47.460;19.034;2023-08-01T13:10:37;1.92;;;1.55;;
41799;SDS011;27468;47.460;19.034;2023-08-01T13:13:03;2.50;;;1.60;;
41799;SDS011;27468;47.460;19.034;2023-08-01T13:15:29;2.17;;;1.55;;
41799;SDS011;27468;47.460;19.034;2023-08-01T13:17:54;1.92;;;1.55;;
41799;SDS011;27468;47.460;19.034;2023-08-01T13:20:20;2.97;;;1.50;;
41799;SDS011;27468;47.460;19.034;2023-08-01T13:22:46;3.22;;;1.60;;
41799;SDS011;27468;47.460;19.034;2023-08-01T13:25:13;2.03;;;1.63;;
41799;SDS011;27468;47.460;19.034;2023-08-01T13:27:39;2.00;;;1.80;;
41799;SDS011;27468;47.460;19.034;2023-08-01T13:30:04;2.72;;;1.48;;
41799;SDS011;27468;47.460;19.034;2023-08-01T13:32:30;2.42;;;1.60;;
41799;SDS011;27468;47.460;19.034;2023-08-01T13:34:56;1.65;;;1.40;;
41799;SDS011;27468;47.460;19.034;2023-08-01T13:37:21;2.92;;;1.58;;
41799;SDS011;27468;47.460;19.034;2023-08-01T13:39:47;3.17;;;1.63;;
41799;SDS011;27468;47.460;19.034;2023-08-01T13:42:12;2.65;;;1.45;;
41799;SDS011;27468;47.460;19.034;2023-08-01T13:44:38;1.58;;;1.42;;
41799;SDS011;27468;47.460;19.034;2023-08-01T13:47:03;2.28;;;1.35;;
41799;SDS011;27468;47.460;19.034;2023-08-01T13:49:29;2.28;;;1.30;;
41799;SDS011;27468;47.460;19.034;2023-08-01T13:51:55;3.28;;;1.65;;
41799;SDS011;27468;47.460;19.034;2023-08-01T13:54:20;1.67;;;1.50;;
41799;SDS011;27468;47.460;19.034;2023-08-01T13:56:45;2.22;;;1.48;;
41799;SDS011;27468;47.460;19.034;2023-08-01T13:59:11;3.45;;;2.00;;
41799;SDS011;27468;47.460;19.034;2023-08-01T14:01:36;2.00;;;1.30;;
41799;SDS011;27468;47.460;19.034;2023-08-01T14:04:03;2.25;;;2.05;;
41799;SDS011;27468;47.460;19.034;2023-08-01T14:06:29;2.10;;;1.60;;
41799;SDS011;27468;47.460;19.034;2023-08-01T14:08:55;2.15;;;1.50;;
41799;SDS011;27468;47.460;19.034;2023-08-01T14:11:20;2.50;;;1.70;;
41799;SDS011;27468;47.460;19.034;2023-08-01T14:13:45;2.65;;;1.50;;
41799;SDS011;27468;47.460;19.034;2023-08-01T14:16:11;1.98;;;1.42;;
41799;SDS011;27468;47.460;19.034;2023-08-01T14:18:36;2.53;;;1.52;;
41799;SDS011;27468;47.460;19.034;2023-08-01T14:21:02;3.70;;;1.58;;
41799;SDS011;27468;47.460;19.034;2023-08-01T14:23:27;2.85;;;1.60;;
41799;SDS011;27468;47.460;19.034;2023-08-01T14:25:52;3.45;;;2.00;;
41799;SDS011;27468;47.460;19.034;2023-08-01T14:28:18;2.38;;;2.08;;
41799;SDS011;27468;47.460;19.034;2023-08-01T14:30:44;3.45;;;1.80;;
41799;SDS011;27468;47.460;19.034;2023-08-01T14:33:09;4.10;;;1.90;;
41799;SDS011;27468;47.460;19.034;2023-08-01T14:35:35;2.30;;;1.60;;